KLAA/LAA METAR and TAF weather

Enter ICAO airport designator
Station Type Date Time Source
KLAA METAR 2020/07/11 22:53 UTC NOAA

KLAA 112253Z AUTO 07013KT 10SM CLR 36/14 A3007 RMK AO2 SLP126 T03560144


Station Type Date Time Source
KLAA Decoded METAR 2020/07/11 22:53 UTC NOAA

LAMAR MUNICIPAL AIRPORT, CO, United States (KLAA) 38-04N 102-41W 1119M
Jul 11, 2020 - 06:53 PM EDT / 2020.07.11 2253 UTC
Wind: from the ENE (070 degrees) at 15 MPH (13 KT):0
Visibility: 10 mile(s):0
Sky conditions: clear
Temperature: 96.1 F (35.6 C)
Heat index: 95.2 F (35.1 C):1
Dew Point: 57.9 F (14.4 C)
Relative Humidity: 28%
Pressure (altimeter): 30.07 in. Hg (1018 hPa)
ob: KLAA 112253Z AUTO 07013KT 10SM CLR 36/14 A3007 RMK AO2 SLP126 T03560144
cycle: 23

Station Type Date Time Source
KLAA TAF UTC NOAA

Error!

Example: see airport list